createdAt,value
2018-04-11T00:01:48.765Z,10.40
2018-04-11T00:04:17.102Z,10.40
2018-04-11T00:06:45.418Z,10.40
2018-04-11T00:09:13.766Z,10.30
2018-04-11T00:11:42.083Z,10.30
2018-04-11T00:14:10.419Z,10.30
2018-04-11T00:16:38.752Z,10.30
2018-04-11T00:19:07.104Z,10.30
2018-04-11T00:21:35.413Z,10.30
2018-04-11T00:24:02.988Z,10.30
2018-04-11T00:26:31.301Z,10.30
2018-04-11T00:28:59.637Z,10.40
2018-04-11T00:31:27.963Z,10.30
2018-04-11T00:33:56.293Z,10.40
2018-04-11T00:36:24.604Z,10.30
2018-04-11T00:38:52.960Z,10.30
2018-04-11T00:41:21.265Z,10.30
2018-04-11T00:43:49.594Z,10.30
2018-04-11T00:46:17.917Z,10.30
2018-04-11T00:48:46.259Z,10.30
2018-04-11T00:51:14.579Z,10.30
2018-04-11T00:53:42.909Z,10.30
2018-04-11T00:56:11.222Z,10.30
2018-04-11T00:58:39.569Z,10.30
2018-04-11T01:01:07.883Z,10.30
2018-04-11T01:03:36.215Z,10.30
2018-04-11T01:06:04.525Z,10.30
2018-04-11T01:08:32.857Z,10.40
2018-04-11T01:11:01.165Z,10.40
2018-04-11T01:13:29.477Z,10.40
2018-04-11T01:15:57.805Z,10.40
2018-04-11T01:18:26.127Z,10.40
2018-04-11T01:20:54.464Z,10.40
2018-04-11T01:23:22.789Z,10.40
2018-04-11T01:25:51.117Z,10.40
2018-04-11T01:28:19.442Z,10.40
2018-04-11T01:30:47.833Z,10.40
2018-04-11T01:33:16.160Z,10.40
2018-04-11T01:35:44.501Z,10.40
2018-04-11T01:38:12.814Z,10.40
2018-04-11T01:40:41.149Z,10.40
2018-04-11T01:43:09.466Z,10.40
2018-04-11T01:45:37.805Z,10.40
2018-04-11T01:48:06.125Z,10.40
2018-04-11T01:50:34.465Z,10.40
2018-04-11T01:53:02.800Z,10.40
2018-04-11T01:55:31.141Z,10.30
2018-04-11T01:57:59.453Z,10.30
2018-04-11T02:00:27.786Z,10.40
2018-04-11T02:02:56.099Z,10.40
2018-04-11T02:05:24.433Z,10.40
2018-04-11T02:07:52.746Z,10.40
2018-04-11T02:10:21.073Z,10.40
2018-04-11T02:12:49.387Z,10.40
2018-04-11T02:15:17.729Z,10.40
2018-04-11T02:17:46.039Z,10.40
2018-04-11T02:20:14.375Z,10.40
2018-04-11T02:22:42.682Z,10.40
2018-04-11T02:25:11.022Z,10.40
2018-04-11T02:27:39.329Z,10.40
2018-04-11T02:30:07.657Z,10.40
2018-04-11T02:32:35.975Z,10.40
2018-04-11T02:35:04.315Z,10.40
2018-04-11T02:37:32.636Z,10.40
2018-04-11T02:40:00.969Z,10.40
2018-04-11T02:42:29.284Z,10.40
2018-04-11T02:44:57.621Z,10.40
2018-04-11T02:47:25.933Z,10.40
2018-04-11T03:01:19.626Z,10.20
2018-04-11T03:03:47.939Z,10.20
2018-04-11T03:06:16.280Z,10.30
2018-04-11T03:08:44.597Z,10.30
2018-04-11T03:11:12.937Z,10.30
2018-04-11T03:13:41.250Z,10.30
2018-04-11T03:16:09.590Z,10.30
2018-04-11T03:18:37.902Z,10.30
2018-04-11T03:21:06.242Z,10.30
2018-04-11T03:23:34.550Z,10.20
2018-04-11T03:26:02.889Z,10.20
2018-04-11T03:28:31.208Z,10.20
2018-04-11T03:30:59.555Z,10.20
2018-04-11T03:33:27.881Z,10.20
2018-04-11T03:35:56.223Z,10.10
2018-04-11T03:38:24.533Z,10.00
2018-04-11T03:40:52.877Z,10.00
2018-04-11T03:43:21.189Z,9.90
2018-04-11T03:45:49.517Z,9.80
2018-04-11T03:48:17.825Z,9.80
2018-04-11T03:50:46.209Z,9.80
2018-04-11T03:53:14.514Z,9.70
2018-04-11T03:55:42.851Z,9.70
2018-04-11T03:58:11.161Z,9.60
2018-04-11T04:00:39.508Z,9.60
2018-04-11T04:03:07.818Z,9.60
2018-04-11T04:05:36.135Z,9.60
2018-04-11T04:08:04.465Z,9.60
2018-04-11T04:10:32.776Z,9.60
2018-04-11T04:13:01.103Z,9.60
2018-04-11T04:15:41.225Z,9.60
2018-04-11T04:18:21.386Z,9.60
2018-04-11T04:20:49.775Z,9.60
2018-04-11T04:23:18.134Z,9.50
2018-04-11T04:25:46.459Z,9.60
2018-04-11T04:28:14.785Z,9.60
2018-04-11T04:30:43.093Z,9.60
2018-04-11T04:33:11.422Z,9.60
2018-04-11T04:35:39.739Z,9.60
2018-04-11T04:38:08.069Z,9.60
2018-04-11T04:40:36.384Z,9.60
2018-04-11T04:43:04.726Z,9.60
2018-04-11T04:45:33.041Z,9.60
2018-04-11T04:48:01.366Z,9.60
2018-04-11T04:50:29.674Z,9.70
2018-04-11T04:52:58.002Z,9.70
2018-04-11T04:55:26.310Z,9.70
2018-04-11T04:57:54.633Z,9.70
2018-04-11T05:00:22.937Z,9.60
2018-04-11T05:02:51.261Z,9.70
2018-04-11T05:05:19.574Z,9.60
2018-04-11T05:07:47.903Z,9.60
2018-04-11T05:10:16.209Z,9.60
2018-04-11T05:12:44.542Z,9.70
2018-04-11T05:15:12.875Z,9.70
2018-04-11T05:17:41.210Z,9.60
2018-04-11T05:20:09.526Z,9.60
2018-04-11T05:22:37.857Z,9.60
2018-04-11T05:25:06.184Z,9.50
2018-04-11T05:27:34.517Z,9.40
2018-04-11T05:30:02.826Z,9.40
2018-04-11T05:32:31.159Z,9.40
2018-04-11T05:34:59.466Z,9.30
2018-04-11T05:37:27.793Z,9.30
2018-04-11T05:39:56.129Z,9.30
2018-04-11T05:42:24.480Z,9.30
2018-04-11T05:44:52.797Z,9.30
2018-04-11T05:47:21.142Z,9.40
2018-04-11T05:49:49.458Z,9.40
2018-04-11T05:52:17.758Z,9.40
2018-04-11T05:54:46.101Z,9.50
2018-04-11T05:57:14.404Z,9.50
2018-04-11T05:59:42.739Z,9.50
2018-04-11T06:02:11.046Z,9.50
2018-04-11T06:04:38.620Z,9.50
2018-04-11T06:07:06.932Z,9.50
2018-04-11T06:09:35.258Z,9.60
2018-04-11T06:12:03.571Z,9.60
2018-04-11T06:14:31.907Z,9.60
2018-04-11T06:17:00.286Z,9.60
2018-04-11T06:19:28.617Z,9.60
2018-04-11T06:21:56.948Z,9.70
2018-04-11T06:24:25.366Z,9.70
2018-04-11T06:26:53.780Z,9.80
2018-04-11T06:29:22.218Z,9.80
2018-04-11T06:31:50.525Z,9.90
2018-04-11T06:34:18.874Z,10.00
2018-04-11T06:36:47.206Z,10.00
2018-04-11T06:39:15.550Z,10.00
2018-04-11T06:41:43.867Z,10.10
2018-04-11T06:44:12.193Z,10.20
2018-04-11T06:46:40.502Z,10.20
2018-04-11T06:49:08.842Z,10.30
2018-04-11T06:51:37.157Z,10.50
2018-04-11T06:54:05.505Z,10.60
2018-04-11T06:56:33.819Z,10.70
2018-04-11T06:59:02.153Z,10.90
2018-04-11T07:01:30.471Z,11.00
2018-04-11T07:03:58.805Z,11.20
2018-04-11T07:06:27.115Z,11.30
2018-04-11T07:08:55.450Z,11.40
2018-04-11T07:11:23.765Z,11.50
2018-04-11T07:13:52.099Z,11.60
2018-04-11T07:16:20.423Z,11.70
2018-04-11T07:18:48.753Z,11.70
2018-04-11T07:21:17.067Z,11.80
2018-04-11T07:23:45.415Z,11.90
2018-04-11T07:26:13.734Z,12.00
2018-04-11T07:28:42.074Z,12.00
2018-04-11T07:31:10.395Z,12.00
2018-04-11T07:33:38.710Z,12.10
2018-04-11T07:36:07.056Z,12.10
2018-04-11T07:38:35.372Z,12.20
2018-04-11T07:41:03.714Z,12.20
2018-04-11T07:43:32.024Z,12.20
2018-04-11T07:46:00.387Z,12.30
2018-04-11T07:48:28.711Z,12.40
2018-04-11T07:50:57.049Z,12.40
2018-04-11T07:53:25.365Z,12.40
2018-04-11T07:55:53.693Z,12.40
2018-04-11T07:58:22.001Z,12.50
2018-04-11T08:00:50.347Z,12.60
2018-04-11T08:03:19.487Z,12.80
2018-04-11T08:05:47.790Z,12.90
2018-04-11T08:08:16.116Z,13.00
2018-04-11T08:10:44.471Z,13.10
2018-04-11T08:13:12.782Z,13.10
2018-04-11T08:15:41.114Z,13.10
2018-04-11T08:18:09.473Z,13.20
2018-04-11T08:20:37.817Z,13.20
2018-04-11T08:23:06.136Z,13.20
2018-04-11T08:25:34.478Z,13.20
2018-04-11T08:28:02.794Z,13.20
2018-04-11T08:30:31.128Z,13.20
2018-04-11T08:32:59.453Z,13.20
2018-04-11T08:35:27.791Z,13.10
2018-04-11T08:37:56.105Z,13.10
2018-04-11T08:40:24.442Z,13.10
2018-04-11T08:42:52.758Z,13.10
2018-04-11T08:45:21.095Z,13.10
2018-04-11T08:47:49.405Z,13.10
2018-04-11T08:50:17.743Z,13.10
2018-04-11T08:52:46.056Z,13.10
2018-04-11T08:55:14.390Z,13.00
2018-04-11T08:57:42.702Z,13.00
2018-04-11T09:00:11.066Z,12.80
2018-04-11T09:02:39.384Z,12.70
2018-04-11T09:05:07.723Z,12.60
2018-04-11T09:07:36.037Z,12.50
2018-04-11T09:10:04.376Z,12.50
2018-04-11T09:12:32.691Z,12.50
2018-04-11T09:15:01.055Z,12.60
2018-04-11T09:17:29.367Z,12.60
2018-04-11T09:19:57.705Z,12.50
2018-04-11T09:22:26.042Z,12.50
2018-04-11T09:24:54.355Z,12.50
2018-04-11T09:27:22.698Z,12.50
2018-04-11T09:29:51.019Z,12.50
2018-04-11T09:32:19.350Z,12.50
2018-04-11T09:34:47.657Z,12.50
2018-04-11T09:37:16.002Z,12.50
2018-04-11T09:39:44.318Z,12.70
2018-04-11T09:42:12.705Z,12.90
2018-04-11T09:44:41.020Z,13.00
2018-04-11T09:47:09.354Z,13.10
2018-04-11T09:49:37.670Z,13.10
2018-04-11T09:52:06.011Z,12.90
2018-04-11T09:54:34.343Z,12.80
2018-04-11T09:57:02.677Z,12.80
2018-04-11T09:59:30.998Z,12.70
2018-04-11T10:01:59.330Z,12.70
2018-04-11T10:04:27.657Z,12.60
2018-04-11T10:06:56.012Z,12.60
2018-04-11T10:09:24.344Z,12.60
2018-04-11T10:11:52.695Z,12.70
2018-04-11T10:14:21.319Z,12.70
2018-04-11T10:16:50.371Z,12.70
2018-04-11T10:19:18.693Z,12.60
2018-04-11T10:21:47.025Z,12.60
2018-04-11T10:24:15.345Z,12.60
2018-04-11T10:26:43.685Z,12.60
2018-04-11T10:29:11.989Z,12.60
2018-04-11T10:31:40.350Z,12.60
2018-04-11T10:34:08.665Z,12.60
2018-04-11T10:36:37.006Z,12.70
2018-04-11T10:39:05.326Z,12.70
2018-04-11T10:41:33.661Z,12.70
2018-04-11T10:44:01.980Z,12.80
2018-04-11T10:46:30.323Z,13.00
2018-04-11T10:48:58.636Z,13.10
2018-04-11T10:51:26.970Z,13.10
2018-04-11T10:53:55.287Z,13.20
2018-04-11T10:56:23.631Z,13.40
2018-04-11T10:58:51.974Z,13.40
2018-04-11T11:01:20.287Z,13.50
2018-04-11T11:03:48.617Z,13.70
2018-04-11T11:06:16.927Z,13.80
2018-04-11T11:08:45.260Z,14.00
2018-04-11T11:11:13.629Z,14.30
2018-04-11T11:13:41.970Z,14.50
2018-04-11T11:16:10.281Z,14.80
2018-04-11T11:18:38.649Z,15.10
2018-04-11T11:21:06.996Z,15.10
2018-04-11T11:23:35.331Z,15.30
2018-04-11T11:26:03.645Z,15.40
2018-04-11T11:28:31.983Z,15.50
2018-04-11T11:31:00.298Z,15.60
2018-04-11T11:33:28.637Z,15.70
2018-04-11T11:35:56.952Z,15.70
2018-04-11T11:38:25.296Z,15.90
2018-04-11T11:40:53.609Z,16.10
2018-04-11T11:43:21.939Z,16.20
2018-04-11T11:45:50.254Z,16.50
2018-04-11T11:48:18.621Z,16.80
2018-04-11T11:50:46.935Z,17.00
2018-04-11T11:53:15.261Z,16.90
2018-04-11T11:55:43.574Z,17.00
2018-04-11T11:58:11.919Z,17.10
2018-04-11T12:00:40.237Z,17.20
2018-04-11T12:03:08.571Z,17.30
2018-04-11T12:05:36.883Z,17.60
2018-04-11T12:08:05.211Z,17.80
2018-04-11T12:10:33.526Z,18.10
2018-04-11T12:13:01.859Z,18.10
2018-04-11T12:15:30.176Z,18.20
2018-04-11T12:17:58.514Z,18.10
2018-04-11T12:20:26.829Z,18.10
2018-04-11T12:22:55.161Z,18.20
2018-04-11T12:25:23.484Z,18.30
2018-04-11T12:27:51.821Z,18.30
2018-04-11T12:30:20.131Z,18.20
2018-04-11T12:32:48.473Z,18.00
2018-04-11T12:35:16.796Z,17.80
2018-04-11T12:37:45.129Z,17.60
2018-04-11T12:40:13.438Z,17.80
2018-04-11T12:42:41.801Z,18.00
2018-04-11T12:45:10.116Z,18.10
2018-04-11T12:47:38.428Z,17.90
2018-04-11T12:50:06.750Z,17.80
2018-04-11T12:52:35.071Z,18.00
2018-04-11T12:55:03.408Z,18.10
2018-04-11T12:57:31.718Z,18.20
2018-04-11T13:00:00.047Z,18.20
2018-04-11T13:02:28.361Z,18.00
2018-04-11T13:04:56.702Z,18.00
2018-04-11T13:07:25.018Z,18.00
2018-04-11T13:09:53.347Z,18.40
2018-04-11T13:12:21.664Z,18.80
2018-04-11T13:14:49.997Z,19.10
2018-04-11T13:17:18.996Z,19.20
2018-04-11T13:19:47.322Z,19.10
2018-04-11T13:22:15.639Z,19.00
2018-04-11T13:24:43.977Z,18.90
2018-04-11T13:27:12.282Z,18.70
2018-04-11T13:29:40.613Z,18.80
2018-04-11T13:32:08.925Z,18.70
2018-04-11T13:34:37.254Z,18.50
2018-04-11T13:37:05.563Z,18.40
2018-04-11T13:39:33.902Z,18.30
2018-04-11T13:42:02.217Z,18.30
2018-04-11T13:44:30.566Z,18.20
2018-04-11T13:46:58.883Z,18.30
2018-04-11T13:49:27.216Z,18.30
2018-04-11T13:51:55.528Z,18.20
2018-04-11T13:54:23.910Z,18.10
2018-04-11T13:56:52.233Z,18.00
2018-04-11T13:59:20.570Z,17.80
2018-04-11T14:01:48.893Z,17.80
2018-04-11T14:04:17.225Z,17.60
2018-04-11T14:06:45.546Z,17.60
2018-04-11T14:09:13.875Z,17.50
2018-04-11T14:11:42.186Z,17.50
2018-04-11T14:14:10.517Z,17.90
2018-04-11T14:16:38.845Z,18.20
2018-04-11T14:19:07.185Z,18.50
2018-04-11T14:21:35.520Z,18.60
2018-04-11T14:24:03.853Z,18.40
2018-04-11T14:26:32.175Z,18.40
2018-04-11T14:29:00.482Z,18.70
2018-04-11T14:31:28.368Z,18.50
2018-04-11T14:33:56.683Z,18.30
2018-04-11T14:36:25.020Z,18.40
2018-04-11T14:38:53.334Z,18.50
2018-04-11T14:41:21.197Z,18.60
2018-04-11T14:43:49.515Z,18.40
2018-04-11T14:46:17.390Z,18.10
2018-04-11T14:48:45.236Z,18.00
2018-04-11T14:51:13.567Z,17.80
2018-04-11T14:53:41.893Z,17.40
2018-04-11T14:56:10.233Z,17.20
2018-04-11T14:58:38.551Z,17.00
2018-04-11T15:01:07.229Z,16.60
2018-04-11T15:03:35.642Z,16.30
2018-04-11T15:06:04.011Z,16.00
2018-04-11T15:08:32.323Z,15.90
2018-04-11T15:11:00.656Z,15.80
2018-04-11T15:13:28.969Z,16.20
2018-04-11T15:15:57.359Z,16.50
2018-04-11T15:18:25.631Z,17.00
2018-04-11T15:20:53.968Z,17.20
2018-04-11T15:23:22.291Z,17.30
2018-04-11T15:25:50.161Z,17.40
2018-04-11T15:28:18.019Z,17.60
2018-04-11T15:30:45.890Z,17.80
2018-04-11T15:33:13.737Z,17.70
2018-04-11T15:35:41.606Z,17.50
2018-04-11T15:38:09.458Z,17.30
2018-04-11T15:40:37.327Z,17.20
2018-04-11T15:43:05.173Z,17.10
2018-04-11T15:45:33.043Z,16.90
2018-04-11T15:48:00.882Z,16.90
2018-04-11T15:50:28.772Z,17.10
2018-04-11T15:52:56.620Z,17.20
2018-04-11T15:55:24.488Z,17.20
2018-04-11T15:57:52.349Z,17.00
2018-04-11T16:00:20.213Z,17.00
2018-04-11T16:02:48.057Z,17.00
2018-04-11T16:05:15.946Z,16.90
2018-04-11T16:07:43.812Z,16.70
2018-04-11T16:10:11.654Z,16.70
2018-04-11T16:12:39.533Z,16.80
2018-04-11T16:15:07.380Z,16.80
2018-04-11T16:17:35.255Z,16.70
2018-04-11T16:20:03.573Z,16.70
2018-04-11T16:22:31.452Z,16.70
2018-04-11T16:24:59.767Z,16.60
2018-04-11T16:27:28.104Z,16.70
2018-04-11T16:29:56.498Z,16.70
2018-04-11T16:32:24.834Z,16.60
2018-04-11T16:34:53.149Z,16.50
2018-04-11T16:37:21.479Z,16.50
2018-04-11T16:39:49.793Z,16.20
2018-04-11T16:42:18.139Z,15.90
2018-04-11T16:44:46.447Z,15.60
2018-04-11T16:47:14.779Z,15.40
2018-04-11T16:49:43.084Z,15.20
2018-04-11T16:52:10.948Z,15.00
2018-04-11T16:54:39.261Z,14.80
2018-04-11T16:57:07.597Z,14.80
2018-04-11T16:59:35.913Z,14.90
2018-04-11T17:02:04.250Z,15.00
2018-04-11T17:04:32.615Z,14.90
2018-04-11T17:07:00.951Z,14.90
2018-04-11T17:09:29.281Z,15.10
2018-04-11T17:11:57.662Z,15.60
2018-04-11T17:14:25.513Z,16.00
2018-04-11T17:16:53.851Z,16.10
2018-04-11T17:19:22.166Z,16.40
2018-04-11T17:22:02.194Z,16.40
2018-04-11T17:24:42.439Z,16.30
2018-04-11T17:27:16.235Z,16.10
2018-04-11T17:29:56.474Z,15.90
2018-04-11T17:32:24.815Z,15.80
2018-04-11T17:34:53.137Z,15.60
2018-04-11T17:37:21.487Z,15.40
2018-04-11T17:39:49.325Z,15.00
2018-04-11T17:42:17.662Z,14.80
2018-04-11T17:44:46.012Z,14.60
2018-04-11T17:47:14.330Z,14.40
2018-04-11T17:49:42.674Z,14.20
2018-04-11T17:52:10.989Z,14.00
2018-04-11T17:57:13.077Z,13.70
2018-04-11T17:59:41.436Z,13.60
2018-04-11T18:02:09.765Z,13.50
2018-04-11T18:04:38.111Z,13.40
2018-04-11T18:07:06.439Z,13.30
2018-04-11T18:09:34.307Z,13.20
2018-04-11T18:12:02.626Z,13.10
2018-04-11T18:14:30.969Z,13.00
2018-04-11T18:16:59.357Z,12.90
2018-04-11T18:19:27.693Z,12.80
2018-04-11T18:21:56.072Z,12.80
2018-04-11T18:24:24.495Z,12.70
2018-04-11T18:26:52.839Z,12.60
2018-04-11T18:29:19.938Z,12.60
2018-04-11T18:31:48.262Z,12.40
2018-04-11T18:34:16.601Z,12.30
2018-04-11T18:36:44.922Z,12.20
2018-04-11T18:39:13.270Z,12.10
2018-04-11T18:41:41.148Z,12.00
2018-04-11T18:44:09.485Z,11.90
2018-04-11T18:46:37.810Z,11.80
2018-04-11T18:49:06.158Z,11.70
2018-04-11T18:51:34.481Z,11.60
2018-04-11T18:54:02.830Z,11.50
2018-04-11T18:56:31.151Z,11.40
2018-04-11T18:58:59.487Z,11.30
2018-04-11T19:01:27.805Z,11.20
2018-04-11T19:03:56.154Z,11.20
2018-04-11T19:06:24.490Z,11.10
2018-04-11T19:08:52.825Z,11.00
2018-04-11T19:11:21.139Z,10.90
2018-04-11T19:13:49.481Z,10.80
2018-04-11T19:16:17.802Z,10.70
2018-04-11T19:18:46.149Z,10.60
2018-04-11T19:21:14.474Z,10.60
2018-04-11T19:23:42.797Z,10.50
2018-04-11T19:26:11.141Z,10.50
2018-04-11T19:28:39.477Z,10.40
2018-04-11T19:31:07.838Z,10.30
2018-04-11T19:33:36.164Z,10.20
2018-04-11T19:36:04.505Z,10.20
2018-04-11T19:38:32.829Z,10.10
2018-04-11T19:41:01.177Z,10.10
2018-04-11T19:43:29.504Z,10.00
2018-04-11T19:45:57.890Z,9.90
2018-04-11T19:48:26.205Z,9.90
2018-04-11T19:50:54.545Z,9.80
2018-04-11T19:53:22.869Z,9.80
2018-04-11T19:55:51.265Z,9.70
2018-04-11T19:58:19.547Z,9.70
2018-04-11T20:00:47.887Z,9.60
2018-04-11T20:03:16.198Z,9.60
2018-04-11T20:05:44.546Z,9.40
2018-04-11T20:08:12.908Z,9.40
2018-04-11T20:10:41.251Z,9.30
2018-04-11T20:13:09.098Z,9.30
2018-04-11T20:15:37.443Z,9.20
2018-04-11T20:18:05.758Z,9.20
2018-04-11T20:20:34.095Z,9.10
2018-04-11T20:23:02.426Z,9.00
2018-04-11T20:25:30.770Z,9.00
2018-04-11T20:27:59.091Z,8.90
2018-04-11T20:30:27.426Z,8.90
2018-04-11T20:32:55.745Z,8.90
2018-04-11T20:35:24.091Z,8.90
2018-04-11T20:37:52.406Z,8.90
2018-04-11T20:40:21.561Z,8.80
2018-04-11T20:42:49.957Z,8.70
2018-04-11T20:45:18.270Z,8.70
2018-04-11T20:47:46.591Z,8.60
2018-04-11T20:50:14.931Z,8.60
2018-04-11T20:52:43.295Z,8.50
2018-04-11T20:55:11.657Z,8.50
2018-04-11T20:57:39.974Z,8.40
2018-04-11T21:00:08.318Z,8.40
2018-04-11T21:02:36.639Z,8.40
2018-04-11T21:05:04.957Z,8.30
2018-04-11T21:07:33.296Z,8.30
2018-04-11T21:10:01.610Z,8.30
2018-04-11T21:12:29.958Z,8.40
2018-04-11T21:14:58.282Z,8.40
2018-04-11T21:17:26.634Z,8.40
2018-04-11T21:19:54.954Z,8.40
2018-04-11T21:22:23.313Z,8.50
2018-04-11T21:24:51.632Z,8.60
2018-04-11T21:27:19.980Z,8.60
2018-04-11T21:29:48.307Z,8.60
2018-04-11T21:32:16.650Z,8.70
2018-04-11T21:34:45.697Z,8.70
2018-04-11T21:37:14.046Z,8.80
2018-04-11T21:39:42.373Z,8.80
2018-04-11T21:42:10.717Z,8.90
2018-04-11T21:44:39.038Z,8.90
2018-04-11T21:47:07.397Z,8.90
2018-04-11T21:49:35.711Z,8.90
2018-04-11T21:52:04.052Z,9.00
2018-04-11T21:54:32.369Z,9.00
2018-04-11T21:57:00.711Z,9.00
2018-04-11T21:59:29.035Z,9.00
2018-04-11T22:01:56.892Z,9.00
2018-04-11T22:04:25.211Z,8.90
2018-04-11T22:06:53.558Z,8.90
2018-04-11T22:09:21.396Z,9.00
2018-04-11T22:11:49.730Z,8.90
2018-04-11T22:14:18.086Z,8.90
2018-04-11T22:16:46.470Z,8.90
2018-04-11T22:19:14.794Z,8.90
2018-04-11T22:21:43.134Z,8.80
2018-04-11T22:24:11.464Z,8.80
2018-04-11T22:26:39.798Z,8.80
2018-04-11T22:29:08.121Z,8.70
2018-04-11T22:31:36.466Z,8.70
2018-04-11T22:34:04.777Z,8.80
2018-04-11T22:36:33.123Z,8.80
2018-04-11T22:39:01.451Z,8.80
2018-04-11T22:41:29.784Z,8.90
2018-04-11T22:43:58.104Z,8.80
2018-04-11T22:46:25.969Z,8.80
2018-04-11T22:48:54.289Z,8.80
2018-04-11T22:51:22.611Z,8.80
2018-04-11T22:53:50.945Z,8.70
2018-04-11T22:56:19.262Z,8.70
2018-04-11T22:58:47.605Z,8.70
2018-04-11T23:01:15.924Z,8.70
2018-04-11T23:03:44.274Z,8.70
2018-04-11T23:06:12.117Z,8.60
2018-04-11T23:08:40.459Z,8.50
2018-04-11T23:11:08.778Z,8.50
2018-04-11T23:13:37.116Z,8.50
2018-04-11T23:16:05.431Z,8.60
2018-04-11T23:18:33.797Z,8.60
2018-04-11T23:21:02.106Z,8.60
2018-04-11T23:23:30.445Z,8.60
2018-04-11T23:25:58.288Z,8.60
2018-04-11T23:28:26.157Z,8.60
2018-04-11T23:30:54.470Z,8.70
2018-04-11T23:33:22.811Z,8.60
2018-04-11T23:35:50.365Z,8.60
2018-04-11T23:38:18.704Z,8.60
2018-04-11T23:40:47.020Z,8.50
2018-04-11T23:43:15.358Z,8.50
2018-04-11T23:45:43.675Z,8.40
2018-04-11T23:48:12.018Z,8.40
2018-04-11T23:50:39.860Z,8.30
2018-04-11T23:53:08.189Z,8.30
2018-04-11T23:55:36.501Z,8.30
2018-04-11T23:58:04.846Z,8.30
